sensor_id;sensor_type;location;lat;lon;timestamp;P1;durP1;ratioP1;P2;durP2;ratioP2
52868;SDS011;39100;53.480;6.158;2023-01-31T00:00:02;7.95;;;2.03;;
52868;SDS011;39100;53.480;6.158;2023-01-31T00:02:29;7.95;;;1.20;;
52868;SDS011;39100;53.480;6.158;2023-01-31T00:04:55;9.27;;;1.27;;
52868;SDS011;39100;53.480;6.158;2023-01-31T00:07:20;3.40;;;0.63;;
52868;SDS011;39100;53.480;6.158;2023-01-31T00:09:46;4.97;;;0.90;;
52868;SDS011;39100;53.480;6.158;2023-01-31T00:12:12;8.13;;;1.00;;
52868;SDS011;39100;53.480;6.158;2023-01-31T00:14:37;7.72;;;1.02;;
52868;SDS011;39100;53.480;6.158;2023-01-31T00:17:03;9.57;;;2.08;;
52868;SDS011;39100;53.480;6.158;2023-01-31T00:19:28;5.97;;;0.80;;
52868;SDS011;39100;53.480;6.158;2023-01-31T00:21:54;10.88;;;1.00;;
52868;SDS011;39100;53.480;6.158;2023-01-31T00:24:19;8.70;;;1.48;;
52868;SDS011;39100;53.480;6.158;2023-01-31T00:26:45;5.88;;;0.80;;
52868;SDS011;39100;53.480;6.158;2023-01-31T00:29:12;6.28;;;0.77;;
52868;SDS011;39100;53.480;6.158;2023-01-31T00:31:38;5.97;;;1.08;;
52868;SDS011;39100;53.480;6.158;2023-01-31T00:34:04;8.07;;;0.90;;
52868;SDS011;39100;53.480;6.158;2023-01-31T00:36:31;4.97;;;1.00;;
52868;SDS011;39100;53.480;6.158;2023-01-31T00:38:58;7.93;;;0.88;;
52868;SDS011;39100;53.480;6.158;2023-01-31T00:41:28;7.63;;;1.45;;
52868;SDS011;39100;53.480;6.158;2023-01-31T00:43:54;6.82;;;1.17;;
52868;SDS011;39100;53.480;6.158;2023-01-31T00:46:20;9.15;;;1.05;;
52868;SDS011;39100;53.480;6.158;2023-01-31T00:48:46;11.05;;;2.65;;
52868;SDS011;39100;53.480;6.158;2023-01-31T00:51:12;11.82;;;1.45;;
52868;SDS011;39100;53.480;6.158;2023-01-31T00:53:38;11.88;;;1.50;;
52868;SDS011;39100;53.480;6.158;2023-01-31T00:56:05;11.75;;;1.95;;
52868;SDS011;39100;53.480;6.158;2023-01-31T00:58:36;12.85;;;2.60;;
52868;SDS011;39100;53.480;6.158;2023-01-31T01:01:07;14.02;;;1.88;;
52868;SDS011;39100;53.480;6.158;2023-01-31T01:03:37;11.02;;;1.45;;
52868;SDS011;39100;53.480;6.158;2023-01-31T01:06:04;7.05;;;1.73;;
52868;SDS011;39100;53.480;6.158;2023-01-31T01:08:30;16.83;;;2.40;;
52868;SDS011;39100;53.480;6.158;2023-01-31T01:11:02;14.43;;;1.83;;
52868;SDS011;39100;53.480;6.158;2023-01-31T01:13:29;13.73;;;2.90;;
52868;SDS011;39100;53.480;6.158;2023-01-31T01:15:55;20.23;;;2.65;;
52868;SDS011;39100;53.480;6.158;2023-01-31T01:18:21;16.65;;;2.42;;
52868;SDS011;39100;53.480;6.158;2023-01-31T01:20:46;13.20;;;2.50;;
52868;SDS011;39100;53.480;6.158;2023-01-31T01:23:12;16.20;;;2.30;;
52868;SDS011;39100;53.480;6.158;2023-01-31T01:25:41;11.98;;;1.77;;
52868;SDS011;39100;53.480;6.158;2023-01-31T01:28:08;11.88;;;2.40;;
52868;SDS011;39100;53.480;6.158;2023-01-31T01:30:33;13.63;;;2.15;;
52868;SDS011;39100;53.480;6.158;2023-01-31T01:33:01;21.70;;;3.90;;
52868;SDS011;39100;53.480;6.158;2023-01-31T01:35:26;19.67;;;4.90;;
52868;SDS011;39100;53.480;6.158;2023-01-31T01:37:52;24.27;;;4.28;;
52868;SDS011;39100;53.480;6.158;2023-01-31T01:40:17;21.17;;;3.78;;
52868;SDS011;39100;53.480;6.158;2023-01-31T01:42:43;28.98;;;4.35;;
52868;SDS011;39100;53.480;6.158;2023-01-31T01:45:12;33.83;;;4.57;;
52868;SDS011;39100;53.480;6.158;2023-01-31T01:47:50;21.38;;;3.88;;
52868;SDS011;39100;53.480;6.158;2023-01-31T01:50:26;15.75;;;3.22;;
52868;SDS011;39100;53.480;6.158;2023-01-31T01:55:42;10.90;;;1.90;;
52868;SDS011;39100;53.480;6.158;2023-01-31T01:58:22;7.47;;;1.27;;
52868;SDS011;39100;53.480;6.158;2023-01-31T02:00:54;11.43;;;1.85;;
52868;SDS011;39100;53.480;6.158;2023-01-31T02:03:20;12.25;;;2.20;;
52868;SDS011;39100;53.480;6.158;2023-01-31T02:05:48;14.15;;;2.95;;
52868;SDS011;39100;53.480;6.158;2023-01-31T02:08:20;13.45;;;2.60;;
52868;SDS011;39100;53.480;6.158;2023-01-31T02:11:32;10.65;;;2.72;;
52868;SDS011;39100;53.480;6.158;2023-01-31T02:14:06;10.57;;;1.90;;
52868;SDS011;39100;53.480;6.158;2023-01-31T02:16:33;13.93;;;1.95;;
52868;SDS011;39100;53.480;6.158;2023-01-31T02:18:59;16.02;;;2.63;;
52868;SDS011;39100;53.480;6.158;2023-01-31T02:21:32;7.38;;;1.77;;
52868;SDS011;39100;53.480;6.158;2023-01-31T02:30:07;11.45;;;1.05;;
52868;SDS011;39100;53.480;6.158;2023-01-31T02:35:32;8.45;;;1.75;;
52868;SDS011;39100;53.480;6.158;2023-01-31T02:38:27;8.50;;;1.17;;
52868;SDS011;39100;53.480;6.158;2023-01-31T02:49:45;9.18;;;1.15;;
52868;SDS011;39100;53.480;6.158;2023-01-31T02:55:11;8.02;;;1.13;;
52868;SDS011;39100;53.480;6.158;2023-01-31T02:58:05;10.43;;;1.30;;
52868;SDS011;39100;53.480;6.158;2023-01-31T03:00:33;8.50;;;1.83;;
52868;SDS011;39100;53.480;6.158;2023-01-31T03:03:03;9.57;;;1.63;;
52868;SDS011;39100;53.480;6.158;2023-01-31T03:05:30;7.82;;;1.17;;
52868;SDS011;39100;53.480;6.158;2023-01-31T03:07:57;15.65;;;2.13;;
52868;SDS011;39100;53.480;6.158;2023-01-31T03:10:38;15.57;;;3.03;;
52868;SDS011;39100;53.480;6.158;2023-01-31T03:13:28;13.38;;;1.52;;
52868;SDS011;39100;53.480;6.158;2023-01-31T03:19:00;11.65;;;1.10;;
52868;SDS011;39100;53.480;6.158;2023-01-31T03:21:53;13.80;;;1.40;;
52868;SDS011;39100;53.480;6.158;2023-01-31T03:24:21;7.82;;;1.40;;
52868;SDS011;39100;53.480;6.158;2023-01-31T03:26:50;9.13;;;1.40;;
52868;SDS011;39100;53.480;6.158;2023-01-31T03:29:17;14.70;;;1.80;;
52868;SDS011;39100;53.480;6.158;2023-01-31T03:31:52;6.13;;;1.63;;
52868;SDS011;39100;53.480;6.158;2023-01-31T03:34:27;11.15;;;1.67;;
52868;SDS011;39100;53.480;6.158;2023-01-31T03:37:14;11.82;;;1.33;;
52868;SDS011;39100;53.480;6.158;2023-01-31T03:40:03;11.57;;;1.70;;
52868;SDS011;39100;53.480;6.158;2023-01-31T03:42:46;16.48;;;1.88;;
52868;SDS011;39100;53.480;6.158;2023-01-31T03:48:02;19.30;;;3.13;;
52868;SDS011;39100;53.480;6.158;2023-01-31T03:50:38;15.65;;;3.17;;
52868;SDS011;39100;53.480;6.158;2023-01-31T03:53:07;13.50;;;2.50;;
52868;SDS011;39100;53.480;6.158;2023-01-31T03:55:54;21.05;;;3.40;;
52868;SDS011;39100;53.480;6.158;2023-01-31T03:58:46;13.35;;;1.75;;
52868;SDS011;39100;53.480;6.158;2023-01-31T04:01:15;9.20;;;1.80;;
52868;SDS011;39100;53.480;6.158;2023-01-31T04:03:43;12.20;;;1.90;;
52868;SDS011;39100;53.480;6.158;2023-01-31T04:06:11;12.05;;;2.55;;
52868;SDS011;39100;53.480;6.158;2023-01-31T04:08:37;8.68;;;2.03;;
52868;SDS011;39100;53.480;6.158;2023-01-31T04:11:04;11.65;;;1.90;;
52868;SDS011;39100;53.480;6.158;2023-01-31T04:13:32;12.20;;;1.90;;
52868;SDS011;39100;53.480;6.158;2023-01-31T04:15:58;10.70;;;2.25;;
52868;SDS011;39100;53.480;6.158;2023-01-31T04:18:24;12.80;;;1.70;;
52868;SDS011;39100;53.480;6.158;2023-01-31T04:20:50;10.43;;;2.75;;
52868;SDS011;39100;53.480;6.158;2023-01-31T04:23:15;14.82;;;1.92;;
52868;SDS011;39100;53.480;6.158;2023-01-31T04:25:42;10.02;;;2.30;;
52868;SDS011;39100;53.480;6.158;2023-01-31T04:28:08;16.17;;;2.42;;
52868;SDS011;39100;53.480;6.158;2023-01-31T04:30:34;15.10;;;2.08;;
52868;SDS011;39100;53.480;6.158;2023-01-31T04:33:00;15.98;;;3.33;;
52868;SDS011;39100;53.480;6.158;2023-01-31T04:35:25;14.52;;;2.35;;
52868;SDS011;39100;53.480;6.158;2023-01-31T04:37:51;12.20;;;2.30;;
52868;SDS011;39100;53.480;6.158;2023-01-31T04:40:16;15.40;;;1.75;;
52868;SDS011;39100;53.480;6.158;2023-01-31T04:42:42;17.17;;;3.03;;
52868;SDS011;39100;53.480;6.158;2023-01-31T04:45:08;19.55;;;2.28;;
52868;SDS011;39100;53.480;6.158;2023-01-31T04:47:34;12.23;;;2.33;;
52868;SDS011;39100;53.480;6.158;2023-01-31T04:50:00;16.50;;;2.38;;
52868;SDS011;39100;53.480;6.158;2023-01-31T04:52:25;20.52;;;2.70;;
52868;SDS011;39100;53.480;6.158;2023-01-31T04:54:51;17.90;;;2.42;;
52868;SDS011;39100;53.480;6.158;2023-01-31T04:57:16;20.23;;;3.22;;
52868;SDS011;39100;53.480;6.158;2023-01-31T04:59:42;15.23;;;1.85;;
52868;SDS011;39100;53.480;6.158;2023-01-31T05:02:07;12.18;;;2.75;;
52868;SDS011;39100;53.480;6.158;2023-01-31T05:04:33;19.17;;;2.38;;
52868;SDS011;39100;53.480;6.158;2023-01-31T05:06:58;12.63;;;2.72;;
52868;SDS011;39100;53.480;6.158;2023-01-31T05:09:24;23.77;;;3.08;;
52868;SDS011;39100;53.480;6.158;2023-01-31T05:11:50;10.63;;;2.25;;
52868;SDS011;39100;53.480;6.158;2023-01-31T05:14:16;17.90;;;2.58;;
52868;SDS011;39100;53.480;6.158;2023-01-31T05:16:42;16.67;;;3.97;;
52868;SDS011;39100;53.480;6.158;2023-01-31T05:19:11;14.65;;;2.22;;
52868;SDS011;39100;53.480;6.158;2023-01-31T05:21:38;14.75;;;2.22;;
52868;SDS011;39100;53.480;6.158;2023-01-31T05:24:22;16.83;;;2.50;;
52868;SDS011;39100;53.480;6.158;2023-01-31T05:26:52;13.75;;;2.17;;
52868;SDS011;39100;53.480;6.158;2023-01-31T05:29:22;13.82;;;3.00;;
52868;SDS011;39100;53.480;6.158;2023-01-31T05:31:52;12.77;;;1.90;;
52868;SDS011;39100;53.480;6.158;2023-01-31T05:34:18;14.57;;;2.17;;
52868;SDS011;39100;53.480;6.158;2023-01-31T05:36:44;10.02;;;1.92;;
52868;SDS011;39100;53.480;6.158;2023-01-31T05:39:10;12.75;;;2.05;;
52868;SDS011;39100;53.480;6.158;2023-01-31T05:41:36;9.80;;;2.40;;
52868;SDS011;39100;53.480;6.158;2023-01-31T05:44:02;14.27;;;2.08;;
52868;SDS011;39100;53.480;6.158;2023-01-31T05:46:27;15.82;;;3.10;;
52868;SDS011;39100;53.480;6.158;2023-01-31T05:48:53;18.52;;;2.85;;
52868;SDS011;39100;53.480;6.158;2023-01-31T05:51:19;14.23;;;1.83;;
52868;SDS011;39100;53.480;6.158;2023-01-31T05:53:44;19.60;;;2.70;;
52868;SDS011;39100;53.480;6.158;2023-01-31T05:56:11;19.13;;;2.10;;
52868;SDS011;39100;53.480;6.158;2023-01-31T05:58:37;16.38;;;2.28;;
52868;SDS011;39100;53.480;6.158;2023-01-31T06:01:03;12.05;;;3.05;;
52868;SDS011;39100;53.480;6.158;2023-01-31T06:03:29;14.57;;;3.55;;
52868;SDS011;39100;53.480;6.158;2023-01-31T06:05:54;16.05;;;2.40;;
52868;SDS011;39100;53.480;6.158;2023-01-31T06:08:20;15.20;;;2.50;;
52868;SDS011;39100;53.480;6.158;2023-01-31T06:10:45;19.02;;;2.53;;
52868;SDS011;39100;53.480;6.158;2023-01-31T06:13:11;18.25;;;2.33;;
52868;SDS011;39100;53.480;6.158;2023-01-31T06:15:36;17.08;;;2.60;;
52868;SDS011;39100;53.480;6.158;2023-01-31T06:18:07;17.70;;;2.17;;
52868;SDS011;39100;53.480;6.158;2023-01-31T06:20:32;13.90;;;1.83;;
52868;SDS011;39100;53.480;6.158;2023-01-31T06:22:58;17.98;;;2.15;;
52868;SDS011;39100;53.480;6.158;2023-01-31T06:25:25;22.13;;;2.38;;
52868;SDS011;39100;53.480;6.158;2023-01-31T06:27:51;7.20;;;2.13;;
52868;SDS011;39100;53.480;6.158;2023-01-31T06:30:17;12.30;;;2.47;;
52868;SDS011;39100;53.480;6.158;2023-01-31T06:32:42;12.45;;;1.98;;
52868;SDS011;39100;53.480;6.158;2023-01-31T06:35:08;20.15;;;3.67;;
52868;SDS011;39100;53.480;6.158;2023-01-31T06:37:34;10.25;;;1.58;;
52868;SDS011;39100;53.480;6.158;2023-01-31T06:39:59;16.00;;;2.40;;
52868;SDS011;39100;53.480;6.158;2023-01-31T06:42:25;11.88;;;1.67;;
52868;SDS011;39100;53.480;6.158;2023-01-31T06:44:50;11.00;;;2.33;;
52868;SDS011;39100;53.480;6.158;2023-01-31T06:47:16;13.18;;;1.60;;
52868;SDS011;39100;53.480;6.158;2023-01-31T06:49:41;19.45;;;2.33;;
52868;SDS011;39100;53.480;6.158;2023-01-31T06:52:07;11.95;;;2.95;;
52868;SDS011;39100;53.480;6.158;2023-01-31T06:54:32;9.85;;;1.63;;
52868;SDS011;39100;53.480;6.158;2023-01-31T06:56:58;11.23;;;1.92;;
52868;SDS011;39100;53.480;6.158;2023-01-31T06:59:23;15.25;;;2.55;;
52868;SDS011;39100;53.480;6.158;2023-01-31T07:01:49;11.02;;;1.23;;
52868;SDS011;39100;53.480;6.158;2023-01-31T07:04:15;11.98;;;1.95;;
52868;SDS011;39100;53.480;6.158;2023-01-31T07:06:40;12.45;;;1.95;;
52868;SDS011;39100;53.480;6.158;2023-01-31T07:09:06;11.32;;;2.00;;
52868;SDS011;39100;53.480;6.158;2023-01-31T07:11:32;11.20;;;2.15;;
52868;SDS011;39100;53.480;6.158;2023-01-31T07:13:57;12.80;;;1.50;;
52868;SDS011;39100;53.480;6.158;2023-01-31T07:16:23;9.40;;;1.65;;
52868;SDS011;39100;53.480;6.158;2023-01-31T07:18:52;9.73;;;1.45;;
52868;SDS011;39100;53.480;6.158;2023-01-31T07:21:19;10.65;;;1.45;;
52868;SDS011;39100;53.480;6.158;2023-01-31T07:23:46;5.82;;;1.15;;
52868;SDS011;39100;53.480;6.158;2023-01-31T07:26:12;7.93;;;1.65;;
52868;SDS011;39100;53.480;6.158;2023-01-31T07:28:39;6.53;;;0.98;;
52868;SDS011;39100;53.480;6.158;2023-01-31T07:31:06;16.77;;;2.10;;
52868;SDS011;39100;53.480;6.158;2023-01-31T07:33:35;6.32;;;1.17;;
52868;SDS011;39100;53.480;6.158;2023-01-31T07:36:04;16.10;;;2.85;;
52868;SDS011;39100;53.480;6.158;2023-01-31T07:38:31;10.40;;;1.85;;
52868;SDS011;39100;53.480;6.158;2023-01-31T07:40:57;11.27;;;1.50;;
52868;SDS011;39100;53.480;6.158;2023-01-31T07:43:24;8.30;;;2.00;;
52868;SDS011;39100;53.480;6.158;2023-01-31T07:45:50;12.80;;;2.90;;
52868;SDS011;39100;53.480;6.158;2023-01-31T07:48:16;12.73;;;1.60;;
52868;SDS011;39100;53.480;6.158;2023-01-31T07:50:47;11.20;;;2.30;;
52868;SDS011;39100;53.480;6.158;2023-01-31T07:53:16;9.73;;;1.50;;
52868;SDS011;39100;53.480;6.158;2023-01-31T07:55:42;9.07;;;2.08;;
52868;SDS011;39100;53.480;6.158;2023-01-31T07:58:11;9.63;;;1.50;;
52868;SDS011;39100;53.480;6.158;2023-01-31T08:00:38;11.95;;;2.15;;
52868;SDS011;39100;53.480;6.158;2023-01-31T08:03:24;13.75;;;2.50;;
52868;SDS011;39100;53.480;6.158;2023-01-31T08:06:07;12.02;;;1.50;;
52868;SDS011;39100;53.480;6.158;2023-01-31T08:08:35;14.57;;;2.58;;
52868;SDS011;39100;53.480;6.158;2023-01-31T08:11:01;12.40;;;1.95;;
52868;SDS011;39100;53.480;6.158;2023-01-31T08:13:29;7.07;;;1.23;;
52868;SDS011;39100;53.480;6.158;2023-01-31T08:15:55;16.88;;;3.35;;
52868;SDS011;39100;53.480;6.158;2023-01-31T08:18:21;14.43;;;2.10;;
52868;SDS011;39100;53.480;6.158;2023-01-31T08:20:46;13.18;;;2.15;;
52868;SDS011;39100;53.480;6.158;2023-01-31T08:23:12;13.77;;;2.30;;
52868;SDS011;39100;53.480;6.158;2023-01-31T08:25:37;18.52;;;1.98;;
52868;SDS011;39100;53.480;6.158;2023-01-31T08:28:03;16.10;;;2.40;;
52868;SDS011;39100;53.480;6.158;2023-01-31T08:30:29;14.88;;;2.03;;
52868;SDS011;39100;53.480;6.158;2023-01-31T08:32:54;11.63;;;2.33;;
52868;SDS011;39100;53.480;6.158;2023-01-31T08:35:20;15.85;;;1.90;;
52868;SDS011;39100;53.480;6.158;2023-01-31T08:37:46;12.93;;;2.70;;
52868;SDS011;39100;53.480;6.158;2023-01-31T08:40:12;10.52;;;2.33;;
52868;SDS011;39100;53.480;6.158;2023-01-31T08:42:37;15.13;;;2.53;;
52868;SDS011;39100;53.480;6.158;2023-01-31T08:45:03;13.18;;;3.00;;
52868;SDS011;39100;53.480;6.158;2023-01-31T08:47:29;13.88;;;2.35;;
52868;SDS011;39100;53.480;6.158;2023-01-31T08:49:54;13.30;;;2.17;;
52868;SDS011;39100;53.480;6.158;2023-01-31T08:52:20;8.90;;;1.92;;
52868;SDS011;39100;53.480;6.158;2023-01-31T08:54:45;10.13;;;1.42;;
52868;SDS011;39100;53.480;6.158;2023-01-31T08:57:11;13.80;;;1.67;;
52868;SDS011;39100;53.480;6.158;2023-01-31T08:59:37;16.15;;;2.28;;
52868;SDS011;39100;53.480;6.158;2023-01-31T09:02:02;11.00;;;1.95;;
52868;SDS011;39100;53.480;6.158;2023-01-31T09:04:28;9.98;;;1.90;;
52868;SDS011;39100;53.480;6.158;2023-01-31T09:06:53;14.07;;;2.35;;
52868;SDS011;39100;53.480;6.158;2023-01-31T09:09:19;14.75;;;2.65;;
52868;SDS011;39100;53.480;6.158;2023-01-31T09:11:45;16.75;;;2.55;;
52868;SDS011;39100;53.480;6.158;2023-01-31T09:14:11;10.48;;;2.17;;
52868;SDS011;39100;53.480;6.158;2023-01-31T09:16:36;17.42;;;4.57;;
52868;SDS011;39100;53.480;6.158;2023-01-31T09:19:02;16.67;;;2.67;;
52868;SDS011;39100;53.480;6.158;2023-01-31T09:21:28;11.30;;;2.03;;
52868;SDS011;39100;53.480;6.158;2023-01-31T09:23:55;8.63;;;1.85;;
52868;SDS011;39100;53.480;6.158;2023-01-31T09:26:22;12.70;;;2.42;;
52868;SDS011;39100;53.480;6.158;2023-01-31T09:28:48;11.25;;;1.98;;
52868;SDS011;39100;53.480;6.158;2023-01-31T09:31:15;9.00;;;2.05;;
52868;SDS011;39100;53.480;6.158;2023-01-31T09:33:42;10.20;;;2.03;;
52868;SDS011;39100;53.480;6.158;2023-01-31T09:36:12;9.27;;;2.20;;
52868;SDS011;39100;53.480;6.158;2023-01-31T09:38:40;11.43;;;2.03;;
52868;SDS011;39100;53.480;6.158;2023-01-31T09:41:20;9.93;;;1.38;;
52868;SDS011;39100;53.480;6.158;2023-01-31T09:43:53;18.40;;;2.88;;
52868;SDS011;39100;53.480;6.158;2023-01-31T09:46:26;13.65;;;3.22;;
52868;SDS011;39100;53.480;6.158;2023-01-31T09:48:56;24.17;;;2.85;;
52868;SDS011;39100;53.480;6.158;2023-01-31T09:51:25;14.20;;;2.30;;
52868;SDS011;39100;53.480;6.158;2023-01-31T09:53:51;10.70;;;1.90;;
52868;SDS011;39100;53.480;6.158;2023-01-31T09:56:38;9.68;;;2.30;;
52868;SDS011;39100;53.480;6.158;2023-01-31T10:01:58;11.13;;;2.42;;
52868;SDS011;39100;53.480;6.158;2023-01-31T10:04:38;11.77;;;2.30;;
52868;SDS011;39100;53.480;6.158;2023-01-31T10:07:14;12.45;;;2.05;;
52868;SDS011;39100;53.480;6.158;2023-01-31T10:09:49;11.57;;;2.40;;
52868;SDS011;39100;53.480;6.158;2023-01-31T10:12:20;9.25;;;2.08;;
52868;SDS011;39100;53.480;6.158;2023-01-31T10:15:28;13.93;;;2.00;;
52868;SDS011;39100;53.480;6.158;2023-01-31T10:18:16;17.55;;;2.30;;
52868;SDS011;39100;53.480;6.158;2023-01-31T10:20:52;13.73;;;2.38;;
52868;SDS011;39100;53.480;6.158;2023-01-31T10:26:09;14.18;;;1.67;;
52868;SDS011;39100;53.480;6.158;2023-01-31T10:28:48;12.63;;;1.70;;
52868;SDS011;39100;53.480;6.158;2023-01-31T10:36:33;7.95;;;1.98;;
52868;SDS011;39100;53.480;6.158;2023-01-31T10:47:15;21.17;;;2.75;;
52868;SDS011;39100;53.480;6.158;2023-01-31T10:49:48;12.88;;;1.92;;
52868;SDS011;39100;53.480;6.158;2023-01-31T10:52:25;10.45;;;1.58;;
52868;SDS011;39100;53.480;6.158;2023-01-31T10:57:55;11.70;;;2.97;;
52868;SDS011;39100;53.480;6.158;2023-01-31T11:00:24;16.15;;;3.28;;
52868;SDS011;39100;53.480;6.158;2023-01-31T11:02:52;14.13;;;2.45;;
52868;SDS011;39100;53.480;6.158;2023-01-31T11:05:19;15.65;;;2.63;;
52868;SDS011;39100;53.480;6.158;2023-01-31T11:07:47;17.90;;;2.25;;
52868;SDS011;39100;53.480;6.158;2023-01-31T11:13:01;9.82;;;1.90;;
52868;SDS011;39100;53.480;6.158;2023-01-31T11:15:34;14.73;;;2.35;;
52868;SDS011;39100;53.480;6.158;2023-01-31T11:18:03;13.55;;;1.55;;
52868;SDS011;39100;53.480;6.158;2023-01-31T11:20:33;10.80;;;1.73;;
52868;SDS011;39100;53.480;6.158;2023-01-31T11:23:02;12.02;;;3.40;;
52868;SDS011;39100;53.480;6.158;2023-01-31T11:25:30;14.05;;;2.42;;
52868;SDS011;39100;53.480;6.158;2023-01-31T11:27:58;10.18;;;1.75;;
52868;SDS011;39100;53.480;6.158;2023-01-31T11:30:37;7.93;;;1.65;;
52868;SDS011;39100;53.480;6.158;2023-01-31T11:33:09;13.80;;;1.90;;
52868;SDS011;39100;53.480;6.158;2023-01-31T11:36:06;14.75;;;1.98;;
52868;SDS011;39100;53.480;6.158;2023-01-31T11:38:39;12.73;;;1.85;;
52868;SDS011;39100;53.480;6.158;2023-01-31T11:44:27;11.18;;;2.97;;
52868;SDS011;39100;53.480;6.158;2023-01-31T11:46:48;9.73;;;2.80;;
52868;SDS011;39100;53.480;6.158;2023-01-31T11:49:20;11.38;;;2.85;;
52868;SDS011;39100;53.480;6.158;2023-01-31T11:51:51;14.52;;;2.92;;
52868;SDS011;39100;53.480;6.158;2023-01-31T11:54:19;17.67;;;4.68;;
52868;SDS011;39100;53.480;6.158;2023-01-31T11:56:48;24.30;;;8.48;;
52868;SDS011;39100;53.480;6.158;2023-01-31T11:59:21;23.63;;;7.15;;
52868;SDS011;39100;53.480;6.158;2023-01-31T12:01:51;16.73;;;5.00;;
52868;SDS011;39100;53.480;6.158;2023-01-31T12:04:40;16.85;;;2.70;;
52868;SDS011;39100;53.480;6.158;2023-01-31T12:07:27;12.98;;;2.78;;
52868;SDS011;39100;53.480;6.158;2023-01-31T12:09:54;14.52;;;2.72;;
52868;SDS011;39100;53.480;6.158;2023-01-31T12:12:27;13.38;;;2.95;;
52868;SDS011;39100;53.480;6.158;2023-01-31T12:14:58;18.65;;;3.15;;
52868;SDS011;39100;53.480;6.158;2023-01-31T12:17:30;12.95;;;2.10;;
52868;SDS011;39100;53.480;6.158;2023-01-31T12:22:54;17.63;;;3.53;;
52868;SDS011;39100;53.480;6.158;2023-01-31T12:28:30;21.60;;;3.33;;
52868;SDS011;39100;53.480;6.158;2023-01-31T12:31:09;24.67;;;4.57;;
52868;SDS011;39100;53.480;6.158;2023-01-31T12:36:36;26.08;;;4.35;;
52868;SDS011;39100;53.480;6.158;2023-01-31T12:41:58;22.00;;;4.30;;
52868;SDS011;39100;53.480;6.158;2023-01-31T12:44:44;41.67;;;5.53;;
52868;SDS011;39100;53.480;6.158;2023-01-31T12:50:15;23.40;;;4.13;;
52868;SDS011;39100;53.480;6.158;2023-01-31T12:56:10;28.40;;;4.47;;
52868;SDS011;39100;53.480;6.158;2023-01-31T12:59:01;34.65;;;6.28;;
52868;SDS011;39100;53.480;6.158;2023-01-31T13:01:42;20.90;;;4.45;;
52868;SDS011;39100;53.480;6.158;2023-01-31T13:04:27;23.95;;;4.28;;
52868;SDS011;39100;53.480;6.158;2023-01-31T13:07:03;23.58;;;4.40;;
52868;SDS011;39100;53.480;6.158;2023-01-31T13:09:34;17.77;;;4.63;;
52868;SDS011;39100;53.480;6.158;2023-01-31T13:12:14;16.83;;;3.80;;
52868;SDS011;39100;53.480;6.158;2023-01-31T13:14:48;28.60;;;4.93;;
52868;SDS011;39100;53.480;6.158;2023-01-31T13:17:36;18.83;;;3.85;;
52868;SDS011;39100;53.480;6.158;2023-01-31T13:20:12;18.98;;;5.07;;
52868;SDS011;39100;53.480;6.158;2023-01-31T13:22:54;25.85;;;4.95;;
52868;SDS011;39100;53.480;6.158;2023-01-31T13:28:11;24.67;;;4.10;;
52868;SDS011;39100;53.480;6.158;2023-01-31T13:33:23;26.10;;;4.30;;
52868;SDS011;39100;53.480;6.158;2023-01-31T13:35:59;15.15;;;3.38;;
52868;SDS011;39100;53.480;6.158;2023-01-31T13:38:41;14.30;;;3.03;;
52868;SDS011;39100;53.480;6.158;2023-01-31T13:41:27;8.57;;;2.25;;
52868;SDS011;39100;53.480;6.158;2023-01-31T13:43:56;16.13;;;3.00;;
52868;SDS011;39100;53.480;6.158;2023-01-31T13:46:23;17.38;;;2.72;;
52868;SDS011;39100;53.480;6.158;2023-01-31T13:49:02;15.02;;;3.42;;
52868;SDS011;39100;53.480;6.158;2023-01-31T13:51:36;16.42;;;2.45;;
52868;SDS011;39100;53.480;6.158;2023-01-31T13:54:16;15.90;;;2.90;;
52868;SDS011;39100;53.480;6.158;2023-01-31T13:56:49;25.55;;;3.60;;
52868;SDS011;39100;53.480;6.158;2023-01-31T13:59:20;19.27;;;3.85;;
52868;SDS011;39100;53.480;6.158;2023-01-31T14:01:51;15.48;;;4.05;;
52868;SDS011;39100;53.480;6.158;2023-01-31T14:04:20;22.55;;;3.05;;
52868;SDS011;39100;53.480;6.158;2023-01-31T14:11:56;15.80;;;2.55;;
52868;SDS011;39100;53.480;6.158;2023-01-31T14:17:01;12.35;;;2.35;;
52868;SDS011;39100;53.480;6.158;2023-01-31T14:22:13;17.45;;;3.20;;
52868;SDS011;39100;53.480;6.158;2023-01-31T14:27:17;14.27;;;2.85;;
52868;SDS011;39100;53.480;6.158;2023-01-31T14:29:45;20.52;;;3.50;;
52868;SDS011;39100;53.480;6.158;2023-01-31T14:32:14;25.75;;;4.47;;
52868;SDS011;39100;53.480;6.158;2023-01-31T14:34:47;22.52;;;3.47;;
52868;SDS011;39100;53.480;6.158;2023-01-31T14:40:28;22.67;;;4.20;;
52868;SDS011;39100;53.480;6.158;2023-01-31T14:51:19;23.00;;;3.85;;
52868;SDS011;39100;53.480;6.158;2023-01-31T14:56:53;17.35;;;3.33;;
52868;SDS011;39100;53.480;6.158;2023-01-31T14:59:23;11.55;;;2.25;;
52868;SDS011;39100;53.480;6.158;2023-01-31T15:01:56;17.65;;;1.98;;
52868;SDS011;39100;53.480;6.158;2023-01-31T15:04:22;12.98;;;2.08;;
52868;SDS011;39100;53.480;6.158;2023-01-31T15:06:50;9.48;;;2.47;;
52868;SDS011;39100;53.480;6.158;2023-01-31T15:11:48;20.33;;;2.58;;
52868;SDS011;39100;53.480;6.158;2023-01-31T15:17:02;20.73;;;2.85;;
52868;SDS011;39100;53.480;6.158;2023-01-31T15:19:51;16.83;;;3.13;;
52868;SDS011;39100;53.480;6.158;2023-01-31T15:22:44;21.65;;;2.67;;
52868;SDS011;39100;53.480;6.158;2023-01-31T15:25:19;16.42;;;2.60;;
52868;SDS011;39100;53.480;6.158;2023-01-31T15:27:53;10.80;;;2.10;;
52868;SDS011;39100;53.480;6.158;2023-01-31T15:30:20;16.38;;;3.35;;
52868;SDS011;39100;53.480;6.158;2023-01-31T15:33:06;21.42;;;2.50;;
52868;SDS011;39100;53.480;6.158;2023-01-31T15:35:42;19.48;;;3.17;;
52868;SDS011;39100;53.480;6.158;2023-01-31T15:41:21;11.93;;;2.75;;
52868;SDS011;39100;53.480;6.158;2023-01-31T15:43:49;13.80;;;2.75;;
52868;SDS011;39100;53.480;6.158;2023-01-31T15:48:51;8.00;;;1.93;;
52868;SDS011;39100;53.480;6.158;2023-01-31T15:51:17;15.75;;;2.42;;
52868;SDS011;39100;53.480;6.158;2023-01-31T15:53:44;10.95;;;1.80;;
52868;SDS011;39100;53.480;6.158;2023-01-31T15:56:17;14.38;;;2.60;;
52868;SDS011;39100;53.480;6.158;2023-01-31T15:58:46;8.93;;;2.38;;
52868;SDS011;39100;53.480;6.158;2023-01-31T16:01:14;11.23;;;2.28;;
52868;SDS011;39100;53.480;6.158;2023-01-31T16:03:41;10.35;;;2.30;;
52868;SDS011;39100;53.480;6.158;2023-01-31T16:06:24;18.35;;;3.30;;
52868;SDS011;39100;53.480;6.158;2023-01-31T16:08:54;12.52;;;2.30;;
52868;SDS011;39100;53.480;6.158;2023-01-31T16:11:21;10.73;;;2.90;;
52868;SDS011;39100;53.480;6.158;2023-01-31T16:13:48;17.50;;;2.83;;
52868;SDS011;39100;53.480;6.158;2023-01-31T16:16:14;14.98;;;2.50;;
52868;SDS011;39100;53.480;6.158;2023-01-31T16:18:44;15.60;;;1.88;;
52868;SDS011;39100;53.480;6.158;2023-01-31T16:23:56;13.63;;;2.42;;
52868;SDS011;39100;53.480;6.158;2023-01-31T16:29:36;10.82;;;2.35;;
52868;SDS011;39100;53.480;6.158;2023-01-31T16:35:06;14.05;;;2.20;;
52868;SDS011;39100;53.480;6.158;2023-01-31T16:37:42;16.88;;;2.83;;
52868;SDS011;39100;53.480;6.158;2023-01-31T16:43:17;12.70;;;2.05;;
52868;SDS011;39100;53.480;6.158;2023-01-31T16:45:50;11.07;;;2.58;;
52868;SDS011;39100;53.480;6.158;2023-01-31T16:50:54;17.48;;;3.90;;
52868;SDS011;39100;53.480;6.158;2023-01-31T16:58:56;13.52;;;2.28;;
52868;SDS011;39100;53.480;6.158;2023-01-31T17:01:32;18.13;;;2.53;;
52868;SDS011;39100;53.480;6.158;2023-01-31T17:06:33;13.88;;;2.17;;
52868;SDS011;39100;53.480;6.158;2023-01-31T17:08:59;18.58;;;4.05;;
52868;SDS011;39100;53.480;6.158;2023-01-31T17:11:25;15.55;;;3.45;;
52868;SDS011;39100;53.480;6.158;2023-01-31T17:13:51;16.92;;;2.85;;